sensor_id;sensor_type;location;lat;lon;timestamp;P1;durP1;ratioP1;P2;durP2;ratioP2
67140;SDS011;54058;52.010;5.546;2023-10-19T00:00:18;9.15;;;6.45;;
67140;SDS011;54058;52.010;5.546;2023-10-19T00:02:50;10.38;;;7.28;;
67140;SDS011;54058;52.010;5.546;2023-10-19T00:05:20;11.63;;;6.88;;
67140;SDS011;54058;52.010;5.546;2023-10-19T00:07:46;12.88;;;7.20;;
67140;SDS011;54058;52.010;5.546;2023-10-19T00:10:11;11.07;;;7.10;;
67140;SDS011;54058;52.010;5.546;2023-10-19T00:12:41;10.40;;;7.00;;
67140;SDS011;54058;52.010;5.546;2023-10-19T00:15:09;10.45;;;7.30;;
67140;SDS011;54058;52.010;5.546;2023-10-19T00:17:36;11.25;;;7.63;;
67140;SDS011;54058;52.010;5.546;2023-10-19T00:20:04;12.45;;;7.25;;
67140;SDS011;54058;52.010;5.546;2023-10-19T00:22:51;12.13;;;8.20;;
67140;SDS011;54058;52.010;5.546;2023-10-19T00:25:18;10.15;;;7.47;;
67140;SDS011;54058;52.010;5.546;2023-10-19T00:27:44;10.40;;;7.78;;
67140;SDS011;54058;52.010;5.546;2023-10-19T00:30:10;14.02;;;8.23;;
67140;SDS011;54058;52.010;5.546;2023-10-19T00:32:36;12.55;;;7.75;;
67140;SDS011;54058;52.010;5.546;2023-10-19T00:35:04;11.27;;;7.70;;
67140;SDS011;54058;52.010;5.546;2023-10-19T00:37:46;12.45;;;8.82;;
67140;SDS011;54058;52.010;5.546;2023-10-19T00:40:13;12.38;;;8.75;;
67140;SDS011;54058;52.010;5.546;2023-10-19T00:42:58;13.82;;;9.23;;
67140;SDS011;54058;52.010;5.546;2023-10-19T00:45:27;15.13;;;8.50;;
67140;SDS011;54058;52.010;5.546;2023-10-19T00:47:53;17.05;;;9.60;;
67140;SDS011;54058;52.010;5.546;2023-10-19T00:50:19;12.67;;;8.97;;
67140;SDS011;54058;52.010;5.546;2023-10-19T00:52:47;14.18;;;9.65;;
67140;SDS011;54058;52.010;5.546;2023-10-19T00:55:17;13.10;;;9.13;;
67140;SDS011;54058;52.010;5.546;2023-10-19T00:57:46;15.25;;;9.43;;
67140;SDS011;54058;52.010;5.546;2023-10-19T01:00:15;15.05;;;10.18;;
67140;SDS011;54058;52.010;5.546;2023-10-19T01:02:55;15.23;;;9.10;;
67140;SDS011;54058;52.010;5.546;2023-10-19T01:05:26;13.85;;;9.68;;
67140;SDS011;54058;52.010;5.546;2023-10-19T01:07:57;19.67;;;9.07;;
67140;SDS011;54058;52.010;5.546;2023-10-19T01:10:27;17.42;;;10.13;;
67140;SDS011;54058;52.010;5.546;2023-10-19T01:12:54;11.73;;;7.80;;
67140;SDS011;54058;52.010;5.546;2023-10-19T01:15:21;16.20;;;10.00;;
67140;SDS011;54058;52.010;5.546;2023-10-19T01:17:53;14.80;;;10.07;;
67140;SDS011;54058;52.010;5.546;2023-10-19T01:20:23;14.68;;;9.90;;
67140;SDS011;54058;52.010;5.546;2023-10-19T01:28:07;13.38;;;9.18;;
67140;SDS011;54058;52.010;5.546;2023-10-19T01:30:35;15.90;;;10.63;;
67140;SDS011;54058;52.010;5.546;2023-10-19T01:33:04;16.05;;;9.50;;
67140;SDS011;54058;52.010;5.546;2023-10-19T01:35:37;15.60;;;9.13;;
67140;SDS011;54058;52.010;5.546;2023-10-19T01:38:25;16.65;;;9.82;;
67140;SDS011;54058;52.010;5.546;2023-10-19T01:40:51;15.52;;;8.85;;
67140;SDS011;54058;52.010;5.546;2023-10-19T01:43:17;14.50;;;8.88;;
67140;SDS011;54058;52.010;5.546;2023-10-19T01:46:05;12.98;;;7.60;;
67140;SDS011;54058;52.010;5.546;2023-10-19T01:48:36;17.33;;;8.55;;
67140;SDS011;54058;52.010;5.546;2023-10-19T01:51:06;10.77;;;8.40;;
67140;SDS011;54058;52.010;5.546;2023-10-19T01:53:36;13.25;;;8.40;;
67140;SDS011;54058;52.010;5.546;2023-10-19T01:56:05;15.57;;;8.57;;
67140;SDS011;54058;52.010;5.546;2023-10-19T01:58:34;15.00;;;9.13;;
67140;SDS011;54058;52.010;5.546;2023-10-19T02:01:04;12.23;;;7.70;;
67140;SDS011;54058;52.010;5.546;2023-10-19T02:03:40;12.35;;;8.15;;
67140;SDS011;54058;52.010;5.546;2023-10-19T02:06:09;13.48;;;7.50;;
67140;SDS011;54058;52.010;5.546;2023-10-19T02:11:21;16.50;;;8.80;;
67140;SDS011;54058;52.010;5.546;2023-10-19T02:13:48;13.07;;;8.63;;
67140;SDS011;54058;52.010;5.546;2023-10-19T02:16:16;13.02;;;8.15;;
67140;SDS011;54058;52.010;5.546;2023-10-19T02:18:45;15.23;;;8.23;;
67140;SDS011;54058;52.010;5.546;2023-10-19T02:21:10;14.25;;;8.52;;
67140;SDS011;54058;52.010;5.546;2023-10-19T02:23:39;16.00;;;8.10;;
67140;SDS011;54058;52.010;5.546;2023-10-19T02:26:07;18.38;;;9.02;;
67140;SDS011;54058;52.010;5.546;2023-10-19T02:28:33;11.50;;;8.38;;
67140;SDS011;54058;52.010;5.546;2023-10-19T02:31:05;17.33;;;7.95;;
67140;SDS011;54058;52.010;5.546;2023-10-19T02:33:43;8.20;;;6.00;;
67140;SDS011;54058;52.010;5.546;2023-10-19T02:36:16;10.80;;;6.15;;
67140;SDS011;54058;52.010;5.546;2023-10-19T02:38:47;13.48;;;6.93;;
67140;SDS011;54058;52.010;5.546;2023-10-19T02:41:17;11.85;;;6.80;;
67140;SDS011;54058;52.010;5.546;2023-10-19T02:43:44;11.65;;;7.20;;
67140;SDS011;54058;52.010;5.546;2023-10-19T02:46:26;10.40;;;7.00;;
67140;SDS011;54058;52.010;5.546;2023-10-19T02:48:51;12.30;;;6.75;;
67140;SDS011;54058;52.010;5.546;2023-10-19T02:51:17;13.85;;;6.80;;
67140;SDS011;54058;52.010;5.546;2023-10-19T02:53:44;9.82;;;6.70;;
67140;SDS011;54058;52.010;5.546;2023-10-19T02:56:14;12.82;;;7.03;;
67140;SDS011;54058;52.010;5.546;2023-10-19T02:58:45;10.73;;;6.15;;
67140;SDS011;54058;52.010;5.546;2023-10-19T03:01:18;10.55;;;5.97;;
67140;SDS011;54058;52.010;5.546;2023-10-19T03:03:47;11.32;;;6.80;;
67140;SDS011;54058;52.010;5.546;2023-10-19T03:06:20;12.38;;;6.38;;
67140;SDS011;54058;52.010;5.546;2023-10-19T03:08:47;12.60;;;6.22;;
67140;SDS011;54058;52.010;5.546;2023-10-19T03:11:22;18.35;;;6.47;;
67140;SDS011;54058;52.010;5.546;2023-10-19T03:13:50;12.57;;;6.22;;
67140;SDS011;54058;52.010;5.546;2023-10-19T03:16:20;9.82;;;6.35;;
67140;SDS011;54058;52.010;5.546;2023-10-19T03:18:46;13.23;;;6.07;;
67140;SDS011;54058;52.010;5.546;2023-10-19T03:21:13;10.35;;;6.53;;
67140;SDS011;54058;52.010;5.546;2023-10-19T03:23:38;11.80;;;6.68;;
67140;SDS011;54058;52.010;5.546;2023-10-19T03:26:05;13.18;;;5.88;;
67140;SDS011;54058;52.010;5.546;2023-10-19T03:28:50;13.35;;;5.93;;
67140;SDS011;54058;52.010;5.546;2023-10-19T03:31:20;13.80;;;5.78;;
67140;SDS011;54058;52.010;5.546;2023-10-19T03:33:48;10.10;;;6.10;;
67140;SDS011;54058;52.010;5.546;2023-10-19T03:36:18;13.15;;;5.40;;
67140;SDS011;54058;52.010;5.546;2023-10-19T03:41:11;8.67;;;4.50;;
67140;SDS011;54058;52.010;5.546;2023-10-19T03:43:37;12.05;;;4.95;;
67140;SDS011;54058;52.010;5.546;2023-10-19T03:46:06;7.95;;;4.38;;
67140;SDS011;54058;52.010;5.546;2023-10-19T03:48:44;12.20;;;4.60;;
67140;SDS011;54058;52.010;5.546;2023-10-19T03:51:11;10.30;;;4.80;;
67140;SDS011;54058;52.010;5.546;2023-10-19T03:53:38;9.23;;;4.35;;
67140;SDS011;54058;52.010;5.546;2023-10-19T03:56:08;9.77;;;3.40;;
67140;SDS011;54058;52.010;5.546;2023-10-19T03:58:36;9.25;;;4.07;;
67140;SDS011;54058;52.010;5.546;2023-10-19T04:01:04;7.55;;;3.65;;
67140;SDS011;54058;52.010;5.546;2023-10-19T04:03:30;4.37;;;3.10;;
67140;SDS011;54058;52.010;5.546;2023-10-19T04:05:56;5.97;;;3.05;;
67140;SDS011;54058;52.010;5.546;2023-10-19T04:08:25;5.05;;;2.67;;
67140;SDS011;54058;52.010;5.546;2023-10-19T04:10:51;8.17;;;2.67;;
67140;SDS011;54058;52.010;5.546;2023-10-19T04:13:36;9.57;;;2.45;;
67140;SDS011;54058;52.010;5.546;2023-10-19T04:16:02;8.77;;;2.67;;
67140;SDS011;54058;52.010;5.546;2023-10-19T04:18:28;6.10;;;2.00;;
67140;SDS011;54058;52.010;5.546;2023-10-19T04:20:54;6.63;;;2.65;;
67140;SDS011;54058;52.010;5.546;2023-10-19T04:23:20;8.20;;;2.28;;
67140;SDS011;54058;52.010;5.546;2023-10-19T04:25:47;8.68;;;1.90;;
67140;SDS011;54058;52.010;5.546;2023-10-19T04:28:13;3.30;;;1.80;;
67140;SDS011;54058;52.010;5.546;2023-10-19T04:30:39;2.97;;;1.40;;
67140;SDS011;54058;52.010;5.546;2023-10-19T04:33:05;4.53;;;1.15;;
67140;SDS011;54058;52.010;5.546;2023-10-19T04:35:34;4.53;;;1.70;;
67140;SDS011;54058;52.010;5.546;2023-10-19T04:38:00;3.08;;;1.17;;
67140;SDS011;54058;52.010;5.546;2023-10-19T04:40:28;7.85;;;1.50;;
67140;SDS011;54058;52.010;5.546;2023-10-19T04:42:54;4.55;;;1.50;;
67140;SDS011;54058;52.010;5.546;2023-10-19T04:45:20;3.67;;;1.40;;
67140;SDS011;54058;52.010;5.546;2023-10-19T04:47:49;4.03;;;1.20;;
67140;SDS011;54058;52.010;5.546;2023-10-19T04:50:17;4.60;;;1.33;;
67140;SDS011;54058;52.010;5.546;2023-10-19T04:52:43;1.30;;;1.00;;
67140;SDS011;54058;52.010;5.546;2023-10-19T04:55:09;8.52;;;1.38;;
67140;SDS011;54058;52.010;5.546;2023-10-19T04:57:34;2.92;;;1.35;;
67140;SDS011;54058;52.010;5.546;2023-10-19T05:00:00;4.22;;;1.20;;
67140;SDS011;54058;52.010;5.546;2023-10-19T05:02:26;5.85;;;1.42;;
67140;SDS011;54058;52.010;5.546;2023-10-19T05:04:52;2.45;;;1.42;;
67140;SDS011;54058;52.010;5.546;2023-10-19T05:07:18;5.07;;;1.30;;
67140;SDS011;54058;52.010;5.546;2023-10-19T05:09:47;4.35;;;1.23;;
67140;SDS011;54058;52.010;5.546;2023-10-19T05:12:15;2.95;;;1.00;;
67140;SDS011;54058;52.010;5.546;2023-10-19T05:14:42;8.07;;;1.33;;
67140;SDS011;54058;52.010;5.546;2023-10-19T05:17:08;2.78;;;1.17;;
67140;SDS011;54058;52.010;5.546;2023-10-19T05:19:34;4.10;;;1.27;;
67140;SDS011;54058;52.010;5.546;2023-10-19T05:22:02;3.70;;;1.20;;
67140;SDS011;54058;52.010;5.546;2023-10-19T05:24:30;8.57;;;1.70;;
67140;SDS011;54058;52.010;5.546;2023-10-19T05:26:57;6.43;;;1.33;;
67140;SDS011;54058;52.010;5.546;2023-10-19T05:29:22;5.45;;;1.15;;
67140;SDS011;54058;52.010;5.546;2023-10-19T05:31:54;3.45;;;1.13;;
67140;SDS011;54058;52.010;5.546;2023-10-19T05:34:23;4.10;;;1.08;;
67140;SDS011;54058;52.010;5.546;2023-10-19T05:36:49;2.15;;;1.15;;
67140;SDS011;54058;52.010;5.546;2023-10-19T05:39:16;5.32;;;1.15;;
67140;SDS011;54058;52.010;5.546;2023-10-19T05:41:42;3.22;;;1.20;;
67140;SDS011;54058;52.010;5.546;2023-10-19T05:44:08;9.52;;;1.33;;
67140;SDS011;54058;52.010;5.546;2023-10-19T05:46:34;6.25;;;1.38;;
67140;SDS011;54058;52.010;5.546;2023-10-19T05:49:00;11.95;;;1.77;;
67140;SDS011;54058;52.010;5.546;2023-10-19T05:51:28;7.53;;;1.50;;
67140;SDS011;54058;52.010;5.546;2023-10-19T05:53:58;3.05;;;1.30;;
67140;SDS011;54058;52.010;5.546;2023-10-19T05:56:30;12.45;;;2.10;;
67140;SDS011;54058;52.010;5.546;2023-10-19T05:58:56;7.00;;;1.90;;
67140;SDS011;54058;52.010;5.546;2023-10-19T06:01:22;8.13;;;1.95;;
67140;SDS011;54058;52.010;5.546;2023-10-19T06:03:48;6.57;;;2.05;;
67140;SDS011;54058;52.010;5.546;2023-10-19T06:06:15;10.55;;;2.00;;
67140;SDS011;54058;52.010;5.546;2023-10-19T06:08:41;7.63;;;1.67;;
67140;SDS011;54058;52.010;5.546;2023-10-19T06:11:06;6.55;;;2.47;;
67140;SDS011;54058;52.010;5.546;2023-10-19T06:13:32;8.65;;;2.10;;
67140;SDS011;54058;52.010;5.546;2023-10-19T06:15:58;7.57;;;2.00;;
67140;SDS011;54058;52.010;5.546;2023-10-19T06:18:23;6.30;;;2.33;;
67140;SDS011;54058;52.010;5.546;2023-10-19T06:20:49;5.97;;;2.47;;
67140;SDS011;54058;52.010;5.546;2023-10-19T06:23:16;9.27;;;2.47;;
67140;SDS011;54058;52.010;5.546;2023-10-19T06:25:43;6.57;;;2.45;;
67140;SDS011;54058;52.010;5.546;2023-10-19T06:28:09;6.33;;;2.47;;
67140;SDS011;54058;52.010;5.546;2023-10-19T06:30:36;4.45;;;2.05;;
67140;SDS011;54058;52.010;5.546;2023-10-19T06:33:02;7.38;;;2.30;;
67140;SDS011;54058;52.010;5.546;2023-10-19T06:35:31;8.93;;;2.35;;
67140;SDS011;54058;52.010;5.546;2023-10-19T06:37:57;7.35;;;2.05;;
67140;SDS011;54058;52.010;5.546;2023-10-19T06:40:24;11.38;;;2.25;;
67140;SDS011;54058;52.010;5.546;2023-10-19T06:42:51;7.95;;;2.63;;
67140;SDS011;54058;52.010;5.546;2023-10-19T06:45:21;4.78;;;2.22;;
67140;SDS011;54058;52.010;5.546;2023-10-19T06:47:47;5.90;;;2.20;;
67140;SDS011;54058;52.010;5.546;2023-10-19T06:50:16;5.22;;;2.53;;
67140;SDS011;54058;52.010;5.546;2023-10-19T06:52:45;6.95;;;2.10;;
67140;SDS011;54058;52.010;5.546;2023-10-19T06:55:12;10.23;;;1.98;;
67140;SDS011;54058;52.010;5.546;2023-10-19T06:57:42;7.57;;;2.55;;
67140;SDS011;54058;52.010;5.546;2023-10-19T07:00:11;5.38;;;2.10;;
67140;SDS011;54058;52.010;5.546;2023-10-19T07:02:43;4.70;;;2.33;;
67140;SDS011;54058;52.010;5.546;2023-10-19T07:05:15;10.05;;;1.90;;
67140;SDS011;54058;52.010;5.546;2023-10-19T07:07:46;3.50;;;1.80;;
67140;SDS011;54058;52.010;5.546;2023-10-19T07:10:13;10.77;;;1.90;;
67140;SDS011;54058;52.010;5.546;2023-10-19T07:12:44;5.32;;;1.98;;
67140;SDS011;54058;52.010;5.546;2023-10-19T07:15:11;7.93;;;1.95;;
67140;SDS011;54058;52.010;5.546;2023-10-19T07:17:44;7.70;;;2.20;;
67140;SDS011;54058;52.010;5.546;2023-10-19T07:20:11;5.45;;;1.83;;
67140;SDS011;54058;52.010;5.546;2023-10-19T07:22:50;6.43;;;2.03;;
67140;SDS011;54058;52.010;5.546;2023-10-19T07:25:17;7.40;;;2.10;;
67140;SDS011;54058;52.010;5.546;2023-10-19T07:27:46;8.20;;;1.90;;
67140;SDS011;54058;52.010;5.546;2023-10-19T07:30:16;6.28;;;1.90;;
67140;SDS011;54058;52.010;5.546;2023-10-19T07:32:46;4.80;;;1.88;;
67140;SDS011;54058;52.010;5.546;2023-10-19T07:35:16;10.38;;;2.53;;
67140;SDS011;54058;52.010;5.546;2023-10-19T07:37:42;6.85;;;1.88;;
67140;SDS011;54058;52.010;5.546;2023-10-19T07:40:09;6.00;;;2.20;;
67140;SDS011;54058;52.010;5.546;2023-10-19T07:42:39;5.85;;;2.30;;
67140;SDS011;54058;52.010;5.546;2023-10-19T07:45:05;14.73;;;2.22;;
67140;SDS011;54058;52.010;5.546;2023-10-19T07:47:34;8.07;;;1.73;;
67140;SDS011;54058;52.010;5.546;2023-10-19T07:50:00;10.18;;;2.28;;
67140;SDS011;54058;52.010;5.546;2023-10-19T07:52:28;7.60;;;1.95;;
67140;SDS011;54058;52.010;5.546;2023-10-19T07:54:53;6.82;;;1.85;;
67140;SDS011;54058;52.010;5.546;2023-10-19T07:57:22;6.78;;;2.13;;
67140;SDS011;54058;52.010;5.546;2023-10-19T07:59:48;10.15;;;2.00;;
67140;SDS011;54058;52.010;5.546;2023-10-19T08:02:13;9.70;;;2.00;;
67140;SDS011;54058;52.010;5.546;2023-10-19T08:04:39;9.55;;;1.63;;
67140;SDS011;54058;52.010;5.546;2023-10-19T08:07:04;13.32;;;1.95;;
67140;SDS011;54058;52.010;5.546;2023-10-19T08:09:30;7.22;;;2.00;;
67140;SDS011;54058;52.010;5.546;2023-10-19T08:12:00;9.18;;;1.67;;
67140;SDS011;54058;52.010;5.546;2023-10-19T08:14:26;11.43;;;2.13;;
67140;SDS011;54058;52.010;5.546;2023-10-19T08:16:52;6.50;;;1.48;;
67140;SDS011;54058;52.010;5.546;2023-10-19T08:19:18;3.83;;;1.40;;
67140;SDS011;54058;52.010;5.546;2023-10-19T08:21:45;4.82;;;1.92;;
67140;SDS011;54058;52.010;5.546;2023-10-19T08:24:12;8.07;;;1.95;;
67140;SDS011;54058;52.010;5.546;2023-10-19T08:26:41;8.48;;;2.13;;
67140;SDS011;54058;52.010;5.546;2023-10-19T08:29:07;4.78;;;1.60;;
67140;SDS011;54058;52.010;5.546;2023-10-19T08:31:41;10.40;;;2.70;;
67140;SDS011;54058;52.010;5.546;2023-10-19T08:34:07;3.72;;;1.60;;
67140;SDS011;54058;52.010;5.546;2023-10-19T08:36:36;9.80;;;2.03;;
67140;SDS011;54058;52.010;5.546;2023-10-19T08:39:06;10.17;;;1.70;;
67140;SDS011;54058;52.010;5.546;2023-10-19T08:41:33;4.05;;;1.50;;
67140;SDS011;54058;52.010;5.546;2023-10-19T08:44:03;6.35;;;1.95;;
67140;SDS011;54058;52.010;5.546;2023-10-19T08:46:35;9.70;;;2.00;;
67140;SDS011;54058;52.010;5.546;2023-10-19T08:49:14;14.57;;;2.13;;
67140;SDS011;54058;52.010;5.546;2023-10-19T08:51:45;10.02;;;2.50;;
67140;SDS011;54058;52.010;5.546;2023-10-19T08:54:12;10.88;;;2.35;;
67140;SDS011;54058;52.010;5.546;2023-10-19T08:56:39;9.57;;;2.13;;
67140;SDS011;54058;52.010;5.546;2023-10-19T08:59:06;9.85;;;2.40;;
67140;SDS011;54058;52.010;5.546;2023-10-19T09:01:32;9.50;;;2.72;;
67140;SDS011;54058;52.010;5.546;2023-10-19T09:04:00;8.82;;;2.00;;
67140;SDS011;54058;52.010;5.546;2023-10-19T09:06:26;9.80;;;2.33;;
67140;SDS011;54058;52.010;5.546;2023-10-19T09:08:56;11.93;;;2.38;;
67140;SDS011;54058;52.010;5.546;2023-10-19T09:11:23;8.18;;;2.78;;
67140;SDS011;54058;52.010;5.546;2023-10-19T09:13:51;9.52;;;2.47;;
67140;SDS011;54058;52.010;5.546;2023-10-19T09:16:18;15.73;;;3.53;;
67140;SDS011;54058;52.010;5.546;2023-10-19T09:18:45;11.52;;;2.83;;
67140;SDS011;54058;52.010;5.546;2023-10-19T09:21:14;10.48;;;2.08;;
67140;SDS011;54058;52.010;5.546;2023-10-19T09:23:53;9.73;;;2.10;;
67140;SDS011;54058;52.010;5.546;2023-10-19T09:26:21;7.13;;;1.65;;
67140;SDS011;54058;52.010;5.546;2023-10-19T09:28:48;8.02;;;1.83;;
67140;SDS011;54058;52.010;5.546;2023-10-19T09:31:15;12.05;;;2.05;;
67140;SDS011;54058;52.010;5.546;2023-10-19T09:33:41;6.03;;;1.93;;
67140;SDS011;54058;52.010;5.546;2023-10-19T09:36:09;13.02;;;1.95;;
67140;SDS011;54058;52.010;5.546;2023-10-19T09:38:39;11.00;;;2.05;;
67140;SDS011;54058;52.010;5.546;2023-10-19T09:41:19;6.70;;;1.73;;
67140;SDS011;54058;52.010;5.546;2023-10-19T09:43:49;12.88;;;2.00;;
67140;SDS011;54058;52.010;5.546;2023-10-19T09:46:24;9.48;;;1.63;;
67140;SDS011;54058;52.010;5.546;2023-10-19T09:48:54;6.78;;;2.05;;
67140;SDS011;54058;52.010;5.546;2023-10-19T09:51:20;8.02;;;1.83;;
67140;SDS011;54058;52.010;5.546;2023-10-19T09:56:38;9.43;;;1.88;;
67140;SDS011;54058;52.010;5.546;2023-10-19T10:04:38;11.95;;;1.92;;
67140;SDS011;54058;52.010;5.546;2023-10-19T10:07:05;9.70;;;1.90;;
67140;SDS011;54058;52.010;5.546;2023-10-19T10:09:34;8.18;;;1.67;;
67140;SDS011;54058;52.010;5.546;2023-10-19T10:14:59;9.88;;;2.00;;
67140;SDS011;54058;52.010;5.546;2023-10-19T10:17:36;12.57;;;2.10;;
67140;SDS011;54058;52.010;5.546;2023-10-19T10:22:40;10.00;;;1.77;;
67140;SDS011;54058;52.010;5.546;2023-10-19T10:25:24;9.63;;;2.58;;
67140;SDS011;54058;52.010;5.546;2023-10-19T10:27:52;9.50;;;2.10;;
67140;SDS011;54058;52.010;5.546;2023-10-19T10:30:19;11.93;;;2.17;;
67140;SDS011;54058;52.010;5.546;2023-10-19T10:32:46;10.98;;;1.95;;
67140;SDS011;54058;52.010;5.546;2023-10-19T10:38:02;10.82;;;2.13;;
67140;SDS011;54058;52.010;5.546;2023-10-19T10:40:44;10.10;;;1.67;;
67140;SDS011;54058;52.010;5.546;2023-10-19T10:43:11;9.00;;;1.95;;
67140;SDS011;54058;52.010;5.546;2023-10-19T10:45:37;11.45;;;2.65;;
67140;SDS011;54058;52.010;5.546;2023-10-19T10:48:03;11.20;;;2.00;;
67140;SDS011;54058;52.010;5.546;2023-10-19T10:50:29;18.02;;;2.47;;
67140;SDS011;54058;52.010;5.546;2023-10-19T10:52:55;7.70;;;1.95;;
67140;SDS011;54058;52.010;5.546;2023-10-19T10:55:23;10.38;;;2.05;;
67140;SDS011;54058;52.010;5.546;2023-10-19T10:57:52;6.22;;;1.70;;
67140;SDS011;54058;52.010;5.546;2023-10-19T11:00:19;9.68;;;1.90;;
67140;SDS011;54058;52.010;5.546;2023-10-19T11:02:58;10.13;;;1.67;;
67140;SDS011;54058;52.010;5.546;2023-10-19T11:05:30;17.92;;;2.53;;
67140;SDS011;54058;52.010;5.546;2023-10-19T11:10:35;9.38;;;2.10;;
67140;SDS011;54058;52.010;5.546;2023-10-19T11:13:05;10.55;;;2.03;;
67140;SDS011;54058;52.010;5.546;2023-10-19T11:15:36;8.45;;;1.90;;
67140;SDS011;54058;52.010;5.546;2023-10-19T11:18:04;9.45;;;1.88;;
67140;SDS011;54058;52.010;5.546;2023-10-19T11:20:32;6.80;;;1.40;;
67140;SDS011;54058;52.010;5.546;2023-10-19T11:22:58;13.38;;;1.90;;
67140;SDS011;54058;52.010;5.546;2023-10-19T11:25:27;9.68;;;2.50;;
67140;SDS011;54058;52.010;5.546;2023-10-19T11:32:50;13.13;;;2.13;;
67140;SDS011;54058;52.010;5.546;2023-10-19T11:35:22;11.73;;;1.73;;
67140;SDS011;54058;52.010;5.546;2023-10-19T11:37:53;16.13;;;1.90;;
67140;SDS011;54058;52.010;5.546;2023-10-19T11:40:21;6.15;;;1.70;;
67140;SDS011;54058;52.010;5.546;2023-10-19T11:42:48;9.88;;;1.90;;
67140;SDS011;54058;52.010;5.546;2023-10-19T11:45:18;10.15;;;1.60;;
67140;SDS011;54058;52.010;5.546;2023-10-19T11:47:44;11.68;;;2.00;;
67140;SDS011;54058;52.010;5.546;2023-10-19T11:50:10;7.60;;;1.90;;
67140;SDS011;54058;52.010;5.546;2023-10-19T11:52:44;10.20;;;1.65;;
67140;SDS011;54058;52.010;5.546;2023-10-19T11:55:14;6.70;;;1.73;;
67140;SDS011;54058;52.010;5.546;2023-10-19T11:57:41;11.43;;;2.00;;
67140;SDS011;54058;52.010;5.546;2023-10-19T12:00:09;9.82;;;2.05;;
67140;SDS011;54058;52.010;5.546;2023-10-19T12:02:49;10.77;;;1.85;;
67140;SDS011;54058;52.010;5.546;2023-10-19T12:05:14;11.30;;;1.80;;
67140;SDS011;54058;52.010;5.546;2023-10-19T12:07:40;12.02;;;1.90;;
67140;SDS011;54058;52.010;5.546;2023-10-19T12:10:10;10.67;;;2.07;;
67140;SDS011;54058;52.010;5.546;2023-10-19T12:12:36;8.70;;;1.92;;
67140;SDS011;54058;52.010;5.546;2023-10-19T12:15:02;8.65;;;2.13;;
67140;SDS011;54058;52.010;5.546;2023-10-19T12:17:31;14.38;;;2.58;;
67140;SDS011;54058;52.010;5.546;2023-10-19T12:19:57;14.70;;;2.80;;
67140;SDS011;54058;52.010;5.546;2023-10-19T12:22:24;10.93;;;2.20;;
67140;SDS011;54058;52.010;5.546;2023-10-19T12:24:53;12.40;;;2.38;;
67140;SDS011;54058;52.010;5.546;2023-10-19T12:27:19;17.33;;;2.22;;
67140;SDS011;54058;52.010;5.546;2023-10-19T12:29:45;8.48;;;1.85;;
67140;SDS011;54058;52.010;5.546;2023-10-19T12:32:11;8.67;;;1.93;;
67140;SDS011;54058;52.010;5.546;2023-10-19T12:34:39;9.52;;;1.95;;
67140;SDS011;54058;52.010;5.546;2023-10-19T12:37:06;12.15;;;2.35;;
67140;SDS011;54058;52.010;5.546;2023-10-19T12:39:34;7.40;;;1.55;;
67140;SDS011;54058;52.010;5.546;2023-10-19T12:42:00;4.65;;;1.65;;
67140;SDS011;54058;52.010;5.546;2023-10-19T12:44:26;8.13;;;2.22;;
67140;SDS011;54058;52.010;5.546;2023-10-19T12:46:54;9.27;;;2.22;;
67140;SDS011;54058;52.010;5.546;2023-10-19T12:49:22;14.07;;;2.33;;
67140;SDS011;54058;52.010;5.546;2023-10-19T12:51:51;14.30;;;3.17;;
67140;SDS011;54058;52.010;5.546;2023-10-19T12:54:17;10.48;;;2.50;;
67140;SDS011;54058;52.010;5.546;2023-10-19T12:56:44;13.10;;;2.60;;
67140;SDS011;54058;52.010;5.546;2023-10-19T12:59:09;7.47;;;2.83;;
67140;SDS011;54058;52.010;5.546;2023-10-19T13:01:36;17.25;;;2.63;;
67140;SDS011;54058;52.010;5.546;2023-10-19T13:04:01;11.40;;;2.50;;
67140;SDS011;54058;52.010;5.546;2023-10-19T13:06:39;9.38;;;2.25;;
67140;SDS011;54058;52.010;5.546;2023-10-19T13:09:05;15.03;;;2.63;;
67140;SDS011;54058;52.010;5.546;2023-10-19T13:11:34;14.85;;;2.22;;
67140;SDS011;54058;52.010;5.546;2023-10-19T13:13:59;14.18;;;2.10;;
67140;SDS011;54058;52.010;5.546;2023-10-19T13:16:25;22.80;;;2.87;;
67140;SDS011;54058;52.010;5.546;2023-10-19T13:18:52;11.90;;;1.90;;
67140;SDS011;54058;52.010;5.546;2023-10-19T13:21:18;12.55;;;2.95;;
67140;SDS011;54058;52.010;5.546;2023-10-19T13:23:51;6.95;;;2.00;;
67140;SDS011;54058;52.010;5.546;2023-10-19T13:26:16;16.50;;;2.50;;
67140;SDS011;54058;52.010;5.546;2023-10-19T13:28:45;10.68;;;2.20;;
67140;SDS011;54058;52.010;5.546;2023-10-19T13:31:13;7.35;;;1.80;;
67140;SDS011;54058;52.010;5.546;2023-10-19T13:33:40;14.45;;;2.03;;
67140;SDS011;54058;52.010;5.546;2023-10-19T13:36:06;14.45;;;2.15;;
67140;SDS011;54058;52.010;5.546;2023-10-19T13:38:33;14.50;;;2.25;;
67140;SDS011;54058;52.010;5.546;2023-10-19T13:40:58;14.43;;;2.10;;
67140;SDS011;54058;52.010;5.546;2023-10-19T13:43:27;12.68;;;1.88;;
67140;SDS011;54058;52.010;5.546;2023-10-19T13:45:54;11.77;;;2.17;;
67140;SDS011;54058;52.010;5.546;2023-10-19T13:50:47;15.00;;;2.43;;
67140;SDS011;54058;52.010;5.546;2023-10-19T13:53:14;9.23;;;2.20;;
67140;SDS011;54058;52.010;5.546;2023-10-19T13:58:06;20.17;;;2.35;;
67140;SDS011;54058;52.010;5.546;2023-10-19T14:00:32;6.88;;;2.25;;
67140;SDS011;54058;52.010;5.546;2023-10-19T14:03:07;16.27;;;2.60;;
67140;SDS011;54058;52.010;5.546;2023-10-19T14:05:37;13.40;;;2.35;;
67140;SDS011;54058;52.010;5.546;2023-10-19T14:08:22;9.25;;;2.60;;
67140;SDS011;54058;52.010;5.546;2023-10-19T14:10:47;11.07;;;2.65;;
67140;SDS011;54058;52.010;5.546;2023-10-19T14:13:13;15.75;;;2.58;;
67140;SDS011;54058;52.010;5.546;2023-10-19T14:15:39;14.38;;;2.50;;
67140;SDS011;54058;52.010;5.546;2023-10-19T14:18:07;7.70;;;2.40;;
67140;SDS011;54058;52.010;5.546;2023-10-19T14:20:34;12.90;;;2.83;;
67140;SDS011;54058;52.010;5.546;2023-10-19T14:23:00;11.40;;;2.70;;
67140;SDS011;54058;52.010;5.546;2023-10-19T14:25:31;15.52;;;2.80;;
67140;SDS011;54058;52.010;5.546;2023-10-19T14:28:03;10.25;;;2.53;;
67140;SDS011;54058;52.010;5.546;2023-10-19T14:30:32;14.43;;;2.47;;
67140;SDS011;54058;52.010;5.546;2023-10-19T14:32:57;8.15;;;2.38;;
67140;SDS011;54058;52.010;5.546;2023-10-19T14:35:24;12.48;;;2.40;;
67140;SDS011;54058;52.010;5.546;2023-10-19T14:37:53;15.52;;;2.85;;
67140;SDS011;54058;52.010;5.546;2023-10-19T14:40:22;11.00;;;2.60;;
67140;SDS011;54058;52.010;5.546;2023-10-19T14:42:49;11.65;;;2.35;;
67140;SDS011;54058;52.010;5.546;2023-10-19T14:45:19;10.95;;;2.60;;
67140;SDS011;54058;52.010;5.546;2023-10-19T14:47:46;13.63;;;2.42;;
67140;SDS011;54058;52.010;5.546;2023-10-19T14:50:13;9.35;;;2.45;;
67140;SDS011;54058;52.010;5.546;2023-10-19T14:52:40;10.35;;;2.97;;
67140;SDS011;54058;52.010;5.546;2023-10-19T14:55:07;12.27;;;3.13;;
67140;SDS011;54058;52.010;5.546;2023-10-19T14:57:35;10.20;;;3.15;;
67140;SDS011;54058;52.010;5.546;2023-10-19T15:00:07;12.95;;;3.28;;
67140;SDS011;54058;52.010;5.546;2023-10-19T15:02:46;13.75;;;3.00;;
67140;SDS011;54058;52.010;5.546;2023-10-19T15:05:16;16.90;;;2.90;;
67140;SDS011;54058;52.010;5.546;2023-10-19T15:07:48;13.32;;;3.03;;
67140;SDS011;54058;52.010;5.546;2023-10-19T15:10:22;14.65;;;2.65;;
67140;SDS011;54058;52.010;5.546;2023-10-19T15:12:50;9.60;;;2.47;;
67140;SDS011;54058;52.010;5.546;2023-10-19T15:15:16;9.45;;;2.63;;
67140;SDS011;54058;52.010;5.546;2023-10-19T15:17:43;12.40;;;2.90;;
67140;SDS011;54058;52.010;5.546;2023-10-19T15:20:10;11.77;;;2.40;;
67140;SDS011;54058;52.010;5.546;2023-10-19T15:22:39;7.10;;;2.40;;
67140;SDS011;54058;52.010;5.546;2023-10-19T15:25:05;8.52;;;2.08;;
67140;SDS011;54058;52.010;5.546;2023-10-19T15:27:36;8.38;;;1.98;;